KNTU/NTU METAR and TAF weather

Enter ICAO airport designator
Station Type Date Time Source
KNTU METAR 2022/12/10 01:56 UTC NOAA

KNTU 100156Z 35005KT 10SM BKN031 06/03 A3024 RMK AO2 SLP244 T00610033


Station Type Date Time Source
KNTU Decoded METAR 2022/12/10 01:56 UTC NOAA

OCEANA, NAVAL AIR STATION, VA, United States (KNTU) 36-49N 076-02W 6M
Dec 09, 2022 - 08:56 PM EST / 2022.12.10 0156 UTC
Wind: from the N (350 degrees) at 6 MPH (5 KT):0
Visibility: 10 mile(s):0
Sky conditions: mostly cloudy
Temperature: 43.0 F (6.1 C)
Dew Point: 37.9 F (3.3 C)
Relative Humidity: 82%
Pressure (altimeter): 30.24 in. Hg (1024 hPa)
ob: KNTU 100156Z 35005KT 10SM BKN031 06/03 A3024 RMK AO2 SLP244 T00610033
cycle: 2

Station Type Date Time Source
KNTU TAF 2022/12/09 23:58 UTC NOAA

TAF KNTU 0923/1023 01008KT 9999 SCT030 QNH3018INS
TEMPO 0923/0905 BKN020
FM101500 03012KT 9999 BKN020 BKN300 QNH3022INS T05/1010Z T09/1018Z FN20051

Example: see airport list